Time;durP1;ratioP1;P1;durP2;ratioP2;P2;SDS_P1;SDS_P2;PMS_P1;PMS_P2;Temp;Humidity;BMP_temperature;BMP_pressure;BME280_temperature;BME280_humidity;BME280_pressure;Samples;Min_cycle;Max_cycle;Signal;HPM_P1;HPM_P2
2021/11/26 00:01:03;;;;;;;93.15;17.90;;;;;;;;;;5013214;28;20214;-67
2021/11/26 00:03:30;;;;;;;89.00;18.85;;;;;;;;;;5015052;28;20217;-67
2021/11/26 00:05:58;;;;;;;89.53;18.83;;;;;;;;;;5015174;28;20245;-67
2021/11/26 00:08:26;;;;;;;92.10;19.63;;;;;;;;;;5014781;28;20281;-66
2021/11/26 00:10:53;;;;;;;87.30;18.00;;;;;;;;;;5015000;28;20721;-67
2021/11/26 00:13:26;;;;;;;92.38;17.83;;;;;;;;;;5015116;28;20516;-67
2021/11/26 00:15:57;;;;;;;84.78;17.95;;;;;;;;;;5014725;28;20240;-65
2021/11/26 00:18:26;;;;;;;86.30;18.85;;;;;;;;;;5014576;28;20650;-65
2021/11/26 00:20:55;;;;;;;89.30;19.90;;;;;;;;;;5015049;28;20211;-67
2021/11/26 00:23:22;;;;;;;88.97;19.25;;;;;;;;;;5014928;28;20213;-67
2021/11/26 00:25:51;;;;;;;94.70;20.27;;;;;;;;;;5014824;28;20587;-67
2021/11/26 00:28:18;;;;;;;93.03;19.85;;;;;;;;;;5014150;28;20706;-67
2021/11/26 00:30:47;;;;;;;91.45;19.83;;;;;;;;;;5014308;28;20207;-65
2021/11/26 00:33:15;;;;;;;97.93;21.08;;;;;;;;;;5003494;28;20208;-67
2021/11/26 00:35:42;;;;;;;94.78;22.00;;;;;;;;;;4995251;28;20204;-67
2021/11/26 00:38:09;;;;;;;91.00;18.25;;;;;;;;;;4994574;28;20573;-67
2021/11/26 00:40:36;;;;;;;94.78;22.48;;;;;;;;;;4994964;28;20207;-67
2021/11/26 00:43:04;;;;;;;98.78;23.38;;;;;;;;;;4994649;28;20683;-67
2021/11/26 00:45:31;;;;;;;89.68;19.50;;;;;;;;;;4994475;28;20218;-67
2021/11/26 00:47:59;;;;;;;96.72;19.85;;;;;;;;;;4994351;28;20228;-67
2021/11/26 00:50:26;;;;;;;92.18;21.05;;;;;;;;;;4994844;28;20588;-67
2021/11/26 00:52:53;;;;;;;95.80;21.52;;;;;;;;;;4994842;28;20212;-67
2021/11/26 00:55:20;;;;;;;93.68;22.13;;;;;;;;;;4994486;28;20211;-66
2021/11/26 00:57:47;;;;;;;90.03;19.70;;;;;;;;;;4994099;28;20226;-67
2021/11/26 01:00:17;;;;;;;96.30;21.35;;;;;;;;;;4994568;28;20224;-67
2021/11/26 01:02:44;;;;;;;91.70;21.70;;;;;;;;;;4993392;28;20212;-67
2021/11/26 01:05:12;;;;;;;100.00;22.65;;;;;;;;;;4993738;28;20207;-67
2021/11/26 01:07:40;;;;;;;95.40;23.27;;;;;;;;;;4994329;28;20721;-67
2021/11/26 01:10:09;;;;;;;93.88;22.02;;;;;;;;;;4994161;28;20671;-67
2021/11/26 01:12:36;;;;;;;97.85;22.55;;;;;;;;;;4994368;28;20218;-66
2021/11/26 01:15:04;;;;;;;94.90;20.65;;;;;;;;;;4994383;28;20208;-67
2021/11/26 01:17:32;;;;;;;96.53;24.80;;;;;;;;;;4994255;28;20210;-67
2021/11/26 01:19:59;;;;;;;96.38;23.58;;;;;;;;;;4994295;28;20234;-65
2021/11/26 01:22:26;;;;;;;96.55;22.15;;;;;;;;;;4994231;28;20214;-66
2021/11/26 01:24:53;;;;;;;94.80;21.85;;;;;;;;;;4994015;28;20672;-67
2021/11/26 01:27:21;;;;;;;93.85;22.73;;;;;;;;;;4993662;28;20214;-67
2021/11/26 01:29:48;;;;;;;96.72;22.55;;;;;;;;;;4994033;28;20235;-67
2021/11/26 01:32:15;;;;;;;98.57;24.80;;;;;;;;;;4994010;28;20211;-66
2021/11/26 01:34:43;;;;;;;95.85;22.60;;;;;;;;;;4993881;28;20214;-66
2021/11/26 01:37:10;;;;;;;98.05;22.48;;;;;;;;;;4993527;28;20210;-67
2021/11/26 01:39:37;;;;;;;98.05;22.88;;;;;;;;;;4993674;28;20745;-67
2021/11/26 01:42:05;;;;;;;97.97;23.73;;;;;;;;;;4993862;28;20211;-67
2021/11/26 01:44:32;;;;;;;98.78;25.77;;;;;;;;;;4993885;28;20229;-66
2021/11/26 01:47:00;;;;;;;102.80;27.40;;;;;;;;;;4993626;28;20211;-67
2021/11/26 01:49:27;;;;;;;102.22;23.73;;;;;;;;;;4993276;28;20232;-67
2021/11/26 01:51:56;;;;;;;103.68;24.83;;;;;;;;;;4993568;28;20210;-67
2021/11/26 01:54:23;;;;;;;98.32;24.05;;;;;;;;;;4993732;28;20208;-67
2021/11/26 01:56:52;;;;;;;108.95;26.50;;;;;;;;;;4993267;28;20211;-67
2021/11/26 01:59:20;;;;;;;112.65;31.08;;;;;;;;;;4993254;28;20238;-66
2021/11/26 02:01:47;;;;;;;122.78;32.45;;;;;;;;;;4993493;28;20464;-67
2021/11/26 02:04:14;;;;;;;123.15;33.05;;;;;;;;;;4993297;28;20211;-67
2021/11/26 02:06:41;;;;;;;111.50;30.25;;;;;;;;;;4993178;28;20238;-67
2021/11/26 02:09:10;;;;;;;109.85;28.23;;;;;;;;;;4992697;28;20232;-67
2021/11/26 02:11:37;;;;;;;105.25;26.17;;;;;;;;;;4993218;28;20631;-67
2021/11/26 02:14:04;;;;;;;99.68;23.77;;;;;;;;;;4992955;28;20214;-67
2021/11/26 02:16:31;;;;;;;100.85;24.17;;;;;;;;;;4993123;28;20299;-67
2021/11/26 02:18:58;;;;;;;88.53;21.33;;;;;;;;;;4992562;28;20708;-67
2021/11/26 02:21:27;;;;;;;99.32;24.23;;;;;;;;;;4993117;28;20203;-67
2021/11/26 02:23:54;;;;;;;98.47;22.90;;;;;;;;;;4992909;28;20675;-67
2021/11/26 02:26:21;;;;;;;93.00;22.00;;;;;;;;;;4993151;28;20215;-66
2021/11/26 02:28:48;;;;;;;98.22;21.10;;;;;;;;;;4992339;28;20730;-65
2021/11/26 02:31:15;;;;;;;100.63;23.52;;;;;;;;;;4992923;28;20211;-66
2021/11/26 02:33:42;;;;;;;98.32;22.05;;;;;;;;;;4992667;28;20214;-67
2021/11/26 02:36:10;;;;;;;97.90;22.65;;;;;;;;;;4992685;28;20691;-67
2021/11/26 02:38:38;;;;;;;99.15;23.50;;;;;;;;;;4992460;28;20237;-67
2021/11/26 02:41:05;;;;;;;95.03;21.85;;;;;;;;;;4992748;28;20672;-67
2021/11/26 02:43:32;;;;;;;90.97;21.13;;;;;;;;;;4992716;28;20214;-66
2021/11/26 02:46:00;;;;;;;96.55;22.35;;;;;;;;;;4992512;28;20216;-67
2021/11/26 02:48:27;;;;;;;100.95;24.35;;;;;;;;;;4992169;28;20326;-66
2021/11/26 02:50:54;;;;;;;103.65;24.05;;;;;;;;;;4992638;28;20217;-67
2021/11/26 02:53:21;;;;;;;96.15;23.63;;;;;;;;;;4992752;28;20579;-66
2021/11/26 02:55:50;;;;;;;98.00;21.67;;;;;;;;;;4990829;28;20371;-66
2021/11/26 02:58:17;;;;;;;96.10;23.10;;;;;;;;;;4992099;28;20601;-67
2021/11/26 03:00:45;;;;;;;98.90;24.70;;;;;;;;;;4992543;28;20203;-67
2021/11/26 03:03:12;;;;;;;101.43;24.70;;;;;;;;;;4992429;28;20690;-67
2021/11/26 03:05:39;;;;;;;98.30;22.80;;;;;;;;;;4992192;28;20208;-66
2021/11/26 03:08:07;;;;;;;94.90;22.23;;;;;;;;;;4991863;28;20227;-67
2021/11/26 03:10:35;;;;;;;103.28;25.38;;;;;;;;;;4992267;28;20219;-67
2021/11/26 03:13:05;;;;;;;91.88;21.70;;;;;;;;;;4992352;28;20220;-67
2021/11/26 03:15:33;;;;;;;102.03;24.52;;;;;;;;;;4992101;28;20684;-67
2021/11/26 03:18:01;;;;;;;99.80;23.50;;;;;;;;;;4991965;28;20234;-67
2021/11/26 03:20:29;;;;;;;96.78;22.95;;;;;;;;;;4992196;28;20226;-66
2021/11/26 03:22:56;;;;;;;99.15;23.50;;;;;;;;;;4992130;28;20214;-66
2021/11/26 03:25:24;;;;;;;95.00;22.50;;;;;;;;;;4994327;28;20203;-66
2021/11/26 03:27:53;;;;;;;98.40;23.75;;;;;;;;;;4996021;28;20223;-67
2021/11/26 03:30:22;;;;;;;92.10;20.67;;;;;;;;;;4996161;28;20239;-66
2021/11/26 03:32:50;;;;;;;100.03;24.13;;;;;;;;;;4996184;28;20215;-67
2021/11/26 03:35:18;;;;;;;93.28;22.33;;;;;;;;;;4995863;28;20214;-67
2021/11/26 03:37:45;;;;;;;101.53;24.00;;;;;;;;;;4995985;28;20211;-66
2021/11/26 03:40:13;;;;;;;100.68;23.42;;;;;;;;;;4996082;28;20243;-66
2021/11/26 03:42:41;;;;;;;97.88;22.63;;;;;;;;;;4996162;28;20702;-66
2021/11/26 03:45:09;;;;;;;92.25;22.13;;;;;;;;;;4995783;28;20212;-67
2021/11/26 03:47:37;;;;;;;100.50;23.52;;;;;;;;;;4995520;28;20718;-67
2021/11/26 03:50:05;;;;;;;94.07;23.23;;;;;;;;;;4995593;28;20604;-66
2021/11/26 03:52:32;;;;;;;103.90;21.95;;;;;;;;;;4996001;28;20291;-67
2021/11/26 03:54:59;;;;;;;96.45;23.95;;;;;;;;;;4995806;28;20211;-66
2021/11/26 03:57:26;;;;;;;97.18;23.50;;;;;;;;;;4995595;28;20694;-67
2021/11/26 03:59:53;;;;;;;96.78;23.50;;;;;;;;;;4995651;28;20220;-67
2021/11/26 04:02:20;;;;;;;101.20;21.92;;;;;;;;;;4995530;28;20702;-66
2021/11/26 04:04:49;;;;;;;99.18;23.92;;;;;;;;;;4995768;28;20218;-67
2021/11/26 04:07:16;;;;;;;105.45;25.88;;;;;;;;;;4995365;28;20239;-67
2021/11/26 04:09:43;;;;;;;111.97;24.70;;;;;;;;;;4995449;28;20227;-65
2021/11/26 04:12:10;;;;;;;105.82;26.33;;;;;;;;;;4995231;28;20230;-67
2021/11/26 04:14:37;;;;;;;103.88;24.38;;;;;;;;;;4995401;28;20207;-66
2021/11/26 04:17:06;;;;;;;110.07;26.63;;;;;;;;;;4995143;28;20204;-67
2021/11/26 04:19:34;;;;;;;105.32;25.35;;;;;;;;;;4995358;28;20719;-66
2021/11/26 04:22:02;;;;;;;105.35;26.23;;;;;;;;;;4995426;28;20591;-67
2021/11/26 04:24:29;;;;;;;102.00;26.85;;;;;;;;;;4995184;28;20216;-67
2021/11/26 04:26:57;;;;;;;110.32;25.33;;;;;;;;;;4995123;28;20208;-66
2021/11/26 04:29:24;;;;;;;110.70;26.27;;;;;;;;;;4994638;28;20242;-67
2021/11/26 04:31:51;;;;;;;95.15;21.73;;;;;;;;;;4995017;28;20212;-67
2021/11/26 04:34:18;;;;;;;107.78;26.35;;;;;;;;;;4995228;28;20208;-67
2021/11/26 04:36:45;;;;;;;99.68;24.67;;;;;;;;;;4994973;28;20213;-67
2021/11/26 04:39:13;;;;;;;107.03;25.05;;;;;;;;;;4995109;28;20224;-66
2021/11/26 04:41:40;;;;;;;107.50;25.65;;;;;;;;;;4994920;28;20575;-67
2021/11/26 04:44:08;;;;;;;104.00;26.70;;;;;;;;;;4994865;28;20292;-67
2021/11/26 04:46:35;;;;;;;105.50;24.80;;;;;;;;;;4994941;28;20208;-66
2021/11/26 04:49:05;;;;;;;100.05;25.80;;;;;;;;;;4994311;28;20228;-65
2021/11/26 04:51:32;;;;;;;102.20;24.67;;;;;;;;;;4994822;28;20212;-67
2021/11/26 04:53:59;;;;;;;105.22;23.98;;;;;;;;;;4994656;28;20687;-67
2021/11/26 04:56:27;;;;;;;110.22;27.08;;;;;;;;;;4994501;28;20538;-66
2021/11/26 04:58:54;;;;;;;107.38;26.02;;;;;;;;;;4994485;28;20227;-66
2021/11/26 05:01:21;;;;;;;100.65;24.63;;;;;;;;;;4994708;28;20212;-67
2021/11/26 05:03:51;;;;;;;110.43;27.77;;;;;;;;;;4994644;28;20343;-67
2021/11/26 05:06:18;;;;;;;106.95;27.27;;;;;;;;;;4994349;28;20584;-67
2021/11/26 05:08:45;;;;;;;106.30;26.45;;;;;;;;;;4993907;28;20231;-66
2021/11/26 05:11:12;;;;;;;108.68;25.95;;;;;;;;;;4994056;28;20297;-67
2021/11/26 05:13:43;;;;;;;103.60;26.17;;;;;;;;;;4994303;28;20672;-67
2021/11/26 05:16:13;;;;;;;102.65;26.20;;;;;;;;;;4994469;28;20587;-67
2021/11/26 05:18:40;;;;;;;111.35;27.00;;;;;;;;;;4994000;28;20231;-67
2021/11/26 05:21:07;;;;;;;106.93;27.30;;;;;;;;;;4994322;28;20204;-67
2021/11/26 05:23:34;;;;;;;107.43;27.40;;;;;;;;;;4993969;28;20212;-67
2021/11/26 05:26:01;;;;;;;113.93;27.65;;;;;;;;;;4994255;28;20210;-67
2021/11/26 05:28:28;;;;;;;115.97;27.23;;;;;;;;;;4993924;28;20227;-67
2021/11/26 05:30:57;;;;;;;109.28;26.50;;;;;;;;;;4993957;28;20707;-67
2021/11/26 05:33:24;;;;;;;113.63;27.38;;;;;;;;;;4994002;28;20211;-66
2021/11/26 05:35:51;;;;;;;103.00;25.95;;;;;;;;;;4993852;28;20710;-66
2021/11/26 05:38:18;;;;;;;112.10;27.92;;;;;;;;;;4993356;28;20234;-67
2021/11/26 05:40:46;;;;;;;119.22;28.35;;;;;;;;;;4994072;28;20203;-65
2021/11/26 05:43:13;;;;;;;110.95;28.23;;;;;;;;;;4993802;28;20212;-66
2021/11/26 05:45:40;;;;;;;112.07;26.15;;;;;;;;;;4993717;28;20212;-67
2021/11/26 05:48:09;;;;;;;110.43;26.48;;;;;;;;;;4992818;28;20228;-65
2021/11/26 05:50:36;;;;;;;107.85;26.83;;;;;;;;;;4994076;28;20219;-66
2021/11/26 05:53:03;;;;;;;111.47;28.63;;;;;;;;;;4993676;28;20218;-66
2021/11/26 05:55:31;;;;;;;109.90;27.20;;;;;;;;;;4993440;28;20702;-66
2021/11/26 05:57:59;;;;;;;108.72;26.10;;;;;;;;;;4992996;28;20254;-66
2021/11/26 06:00:27;;;;;;;109.43;28.90;;;;;;;;;;4993548;28;20204;-66
2021/11/26 06:02:54;;;;;;;114.95;27.58;;;;;;;;;;4993472;28;20210;-67
2021/11/26 06:05:24;;;;;;;112.25;27.40;;;;;;;;;;4993109;28;20208;-67
2021/11/26 06:07:51;;;;;;;106.78;28.02;;;;;;;;;;4992826;28;20232;-66
2021/11/26 06:10:18;;;;;;;116.97;28.33;;;;;;;;;;4993130;28;20742;-66
2021/11/26 06:12:46;;;;;;;108.68;25.10;;;;;;;;;;4993207;28;20210;-67
2021/11/26 06:15:13;;;;;;;109.57;29.52;;;;;;;;;;4992958;28;20207;-66
2021/11/26 06:17:41;;;;;;;116.45;26.85;;;;;;;;;;4992748;28;20211;-65
2021/11/26 06:20:09;;;;;;;103.47;26.65;;;;;;;;;;4993298;28;20200;-66
2021/11/26 06:22:39;;;;;;;108.05;26.33;;;;;;;;;;4993127;28;20204;-66
2021/11/26 06:25:07;;;;;;;114.18;29.25;;;;;;;;;;4992968;28;20215;-65
2021/11/26 06:27:34;;;;;;;111.60;26.83;;;;;;;;;;4992732;28;20218;-67
2021/11/26 06:30:01;;;;;;;112.03;29.58;;;;;;;;;;4992730;28;20223;-66
2021/11/26 06:32:28;;;;;;;117.25;27.38;;;;;;;;;;4992778;28;20544;-66
2021/11/26 06:34:55;;;;;;;109.55;27.30;;;;;;;;;;4992856;28;20207;-66
2021/11/26 06:37:22;;;;;;;106.10;27.08;;;;;;;;;;4992645;28;20207;-66
2021/11/26 06:39:51;;;;;;;109.72;28.23;;;;;;;;;;4992520;28;20223;-66
2021/11/26 06:42:18;;;;;;;105.35;27.42;;;;;;;;;;5000841;28;20195;-66
2021/11/26 06:44:45;;;;;;;115.13;29.75;;;;;;;;;;5012037;28;20642;-65
2021/11/26 06:47:12;;;;;;;109.65;25.88;;;;;;;;;;5012181;28;20210;-66
2021/11/26 06:49:39;;;;;;;109.85;26.60;;;;;;;;;;5012176;28;20245;-65
2021/11/26 06:52:06;;;;;;;117.53;29.20;;;;;;;;;;5010768;28;20202;-67
2021/11/26 06:54:33;;;;;;;111.07;27.05;;;;;;;;;;5011955;28;20255;-66
2021/11/26 06:57:02;;;;;;;109.57;27.40;;;;;;;;;;5011993;28;20207;-67
2021/11/26 06:59:29;;;;;;;112.30;28.98;;;;;;;;;;5010719;28;20230;-67
2021/11/26 07:01:56;;;;;;;110.00;28.00;;;;;;;;;;5012239;28;20241;-67
2021/11/26 07:04:24;;;;;;;122.93;30.95;;;;;;;;;;5011937;28;20221;-66
2021/11/26 07:06:51;;;;;;;114.57;27.00;;;;;;;;;;5011925;28;20211;-66
2021/11/26 07:09:18;;;;;;;107.20;27.83;;;;;;;;;;5011725;28;20719;-66
2021/11/26 07:11:45;;;;;;;106.05;27.42;;;;;;;;;;5011656;28;20730;-66
2021/11/26 07:14:14;;;;;;;110.05;28.02;;;;;;;;;;5011824;28;20705;-66
2021/11/26 07:16:41;;;;;;;114.57;26.98;;;;;;;;;;5011745;28;20211;-66
2021/11/26 07:19:08;;;;;;;112.32;30.10;;;;;;;;;;5011606;28;20222;-66
2021/11/26 07:21:35;;;;;;;114.20;29.20;;;;;;;;;;5011723;28;20207;-66
2021/11/26 07:24:02;;;;;;;117.57;26.77;;;;;;;;;;5011857;28;20211;-66
2021/11/26 07:26:30;;;;;;;117.80;29.25;;;;;;;;;;5011660;28;20211;-67
2021/11/26 07:28:57;;;;;;;112.05;27.15;;;;;;;;;;5011890;28;20223;-66
2021/11/26 07:31:25;;;;;;;106.60;27.73;;;;;;;;;;5011579;28;20241;-67
2021/11/26 07:33:52;;;;;;;109.10;29.25;;;;;;;;;;5011803;28;20218;-65
2021/11/26 07:36:19;;;;;;;113.72;28.92;;;;;;;;;;5011611;28;20213;-66
2021/11/26 07:38:46;;;;;;;107.30;27.98;;;;;;;;;;5011371;28;20233;-66
2021/11/26 07:41:15;;;;;;;111.65;27.10;;;;;;;;;;5011524;28;20667;-66
2021/11/26 07:43:42;;;;;;;119.65;30.92;;;;;;;;;;5011854;28;20211;-67
2021/11/26 07:46:09;;;;;;;107.82;27.63;;;;;;;;;;5011639;28;20697;-66
2021/11/26 07:48:37;;;;;;;120.10;29.80;;;;;;;;;;5011305;28;20230;-67
2021/11/26 07:51:04;;;;;;;116.97;31.65;;;;;;;;;;5011506;28;20580;-66
2021/11/26 07:53:32;;;;;;;113.10;28.73;;;;;;;;;;5011375;28;20221;-66
2021/11/26 07:55:59;;;;;;;112.38;28.05;;;;;;;;;;5011721;28;20361;-66
2021/11/26 07:58:26;;;;;;;117.95;30.17;;;;;;;;;;5011286;28;20230;-66
2021/11/26 08:00:53;;;;;;;111.60;28.05;;;;;;;;;;5011520;28;20210;-67
2021/11/26 08:03:21;;;;;;;116.18;27.88;;;;;;;;;;5011407;28;20207;-67
2021/11/26 08:05:50;;;;;;;115.38;29.13;;;;;;;;;;5011416;28;20214;-66
2021/11/26 08:08:18;;;;;;;111.75;28.95;;;;;;;;;;5010850;28;20231;-66
2021/11/26 08:10:45;;;;;;;107.32;26.45;;;;;;;;;;5012298;28;20273;-66
2021/11/26 08:13:12;;;;;;;103.28;25.35;;;;;;;;;;5015181;28;20214;-67
2021/11/26 08:15:39;;;;;;;111.57;25.08;;;;;;;;;;5014868;28;20211;-66
2021/11/26 08:18:07;;;;;;;113.95;28.60;;;;;;;;;;5014643;28;20223;-66
2021/11/26 08:20:36;;;;;;;114.70;29.10;;;;;;;;;;5014845;28;20646;-65
2021/11/26 08:23:05;;;;;;;110.72;28.20;;;;;;;;;;5014846;28;20236;-66
2021/11/26 08:25:32;;;;;;;115.63;30.65;;;;;;;;;;5014702;28;20694;-67
2021/11/26 08:27:59;;;;;;;113.78;26.50;;;;;;;;;;5014716;28;20227;-66
2021/11/26 08:30:27;;;;;;;109.10;28.88;;;;;;;;;;5014504;28;20219;-66
2021/11/26 08:32:54;;;;;;;106.93;27.35;;;;;;;;;;5014607;28;20698;-65
2021/11/26 08:35:21;;;;;;;109.43;26.63;;;;;;;;;;5014447;28;20592;-66
2021/11/26 08:37:49;;;;;;;111.25;26.35;;;;;;;;;;5014578;28;20207;-66
2021/11/26 08:40:18;;;;;;;107.45;25.23;;;;;;;;;;5014701;28;20206;-66
2021/11/26 08:42:46;;;;;;;103.25;26.58;;;;;;;;;;5014571;28;20214;-67
2021/11/26 08:45:13;;;;;;;112.18;26.52;;;;;;;;;;5014413;28;20286;-67
2021/11/26 08:47:40;;;;;;;104.95;28.15;;;;;;;;;;5013839;28;20210;-66
2021/11/26 08:50:11;;;;;;;109.85;29.88;;;;;;;;;;5014254;28;20705;-66
2021/11/26 08:52:38;;;;;;;110.53;26.05;;;;;;;;;;5014586;28;20203;-66
2021/11/26 08:55:07;;;;;;;111.55;27.73;;;;;;;;;;5014457;28;20203;-66
2021/11/26 08:57:36;;;;;;;117.55;28.20;;;;;;;;;;5014109;28;20626;-66
2021/11/26 09:00:04;;;;;;;103.85;24.52;;;;;;;;;;5014316;28;20203;-66
2021/11/26 09:02:31;;;;;;;109.10;27.15;;;;;;;;;;5013993;28;20206;-66
2021/11/26 09:04:59;;;;;;;109.50;27.70;;;;;;;;;;5014342;28;20215;-66
2021/11/26 09:07:26;;;;;;;107.95;27.65;;;;;;;;;;5013945;28;20211;-66
2021/11/26 09:09:54;;;;;;;108.15;25.63;;;;;;;;;;5014374;28;20258;-66
2021/11/26 09:12:23;;;;;;;114.15;27.40;;;;;;;;;;5013917;28;20227;-67
2021/11/26 09:14:52;;;;;;;103.50;27.00;;;;;;;;;;5013936;28;20207;-66
2021/11/26 09:17:19;;;;;;;102.00;25.88;;;;;;;;;;5013982;28;20378;-67
2021/11/26 09:19:46;;;;;;;107.13;25.13;;;;;;;;;;5013872;28;20235;-67
2021/11/26 09:22:13;;;;;;;110.35;28.10;;;;;;;;;;5013113;28;20203;-67
2021/11/26 09:24:41;;;;;;;111.32;26.35;;;;;;;;;;5013770;28;20206;-66
2021/11/26 09:27:08;;;;;;;119.47;27.92;;;;;;;;;;5013585;28;20203;-65
2021/11/26 09:29:35;;;;;;;112.38;29.13;;;;;;;;;;5013613;28;20710;-66
2021/11/26 09:32:04;;;;;;;100.28;24.05;;;;;;;;;;5014010;28;20239;-66
2021/11/26 09:34:31;;;;;;;99.45;23.63;;;;;;;;;;5013924;28;20203;-67
2021/11/26 09:36:58;;;;;;;111.85;25.45;;;;;;;;;;5013562;28;20235;-66
2021/11/26 09:39:26;;;;;;;106.82;26.23;;;;;;;;;;5013136;28;20250;-65
2021/11/26 09:41:54;;;;;;;107.63;25.25;;;;;;;;;;5013392;28;20261;-66
2021/11/26 09:44:21;;;;;;;104.10;25.65;;;;;;;;;;5013329;28;20689;-66
2021/11/26 09:46:49;;;;;;;105.07;26.15;;;;;;;;;;5013156;28;20209;-66
2021/11/26 09:49:17;;;;;;;110.97;26.75;;;;;;;;;;5012845;28;20239;-65
2021/11/26 09:51:44;;;;;;;118.93;26.88;;;;;;;;;;5012740;28;20227;-66
2021/11/26 09:54:11;;;;;;;109.97;26.35;;;;;;;;;;5013327;28;20727;-67
2021/11/26 09:56:38;;;;;;;105.50;26.10;;;;;;;;;;5012914;28;20675;-66
2021/11/26 09:59:05;;;;;;;109.53;25.48;;;;;;;;;;5012900;28;20223;-66
2021/11/26 10:01:33;;;;;;;108.70;24.98;;;;;;;;;;5013145;28;20203;-66
2021/11/26 10:04:00;;;;;;;110.13;26.95;;;;;;;;;;5013270;28;20213;-66
2021/11/26 10:06:37;;;;;;;111.90;26.17;;;;;;;;;;5013092;28;20218;-67
2021/11/26 10:09:06;;;;;;;104.47;23.88;;;;;;;;;;5012707;28;20789;-67
2021/11/26 10:11:37;;;;;;;97.32;22.23;;;;;;;;;;5012937;28;20718;-66
2021/11/26 10:14:13;;;;;;;103.70;24.00;;;;;;;;;;5013252;28;20237;-67
2021/11/26 10:16:43;;;;;;;99.07;23.52;;;;;;;;;;5012933;28;20285;-66
2021/11/26 10:19:11;;;;;;;104.03;24.13;;;;;;;;;;5012714;28;20252;-66
2021/11/26 10:21:40;;;;;;;108.57;24.90;;;;;;;;;;5012826;28;20297;-66
2021/11/26 10:24:14;;;;;;;104.57;25.65;;;;;;;;;;5013066;28;20203;-65
2021/11/26 10:26:41;;;;;;;98.75;22.50;;;;;;;;;;5012954;28;20621;-66
2021/11/26 10:29:08;;;;;;;95.88;22.08;;;;;;;;;;5012380;28;20227;-66
2021/11/26 10:31:36;;;;;;;104.55;24.63;;;;;;;;;;5012576;28;20223;-66
2021/11/26 10:34:04;;;;;;;95.45;23.10;;;;;;;;;;5012440;28;20241;-66
2021/11/26 10:36:43;;;;;;;98.32;22.40;;;;;;;;;;5012758;28;20209;-66
2021/11/26 10:39:12;;;;;;;99.95;23.33;;;;;;;;;;5012378;28;20231;-66
2021/11/26 10:41:39;;;;;;;102.28;22.20;;;;;;;;;;5012559;28;20199;-65
2021/11/26 10:44:11;;;;;;;101.22;22.67;;;;;;;;;;5012566;28;20613;-66
2021/11/26 10:46:47;;;;;;;100.80;24.17;;;;;;;;;;5012279;28;20211;-66
2021/11/26 10:49:35;;;;;;;106.75;23.75;;;;;;;;;;5012169;28;20264;-66
2021/11/26 10:52:18;;;;;;;98.95;23.38;;;;;;;;;;5012511;28;20230;-66
2021/11/26 10:57:43;;;;;;;104.53;23.42;;;;;;;;;;5012192;28;20680;-65
2021/11/26 11:00:13;;;;;;;106.70;26.08;;;;;;;;;;5012258;28;20242;-66
2021/11/26 11:02:41;;;;;;;146.68;39.25;;;;;;;;;;5012302;28;20214;-67
2021/11/26 11:05:09;;;;;;;145.20;37.70;;;;;;;;;;5012068;28;20627;-66
2021/11/26 11:07:42;;;;;;;114.55;25.33;;;;;;;;;;5012382;28;20566;-66
2021/11/26 11:10:10;;;;;;;101.57;23.92;;;;;;;;;;5012193;28;20213;-66
2021/11/26 11:12:38;;;;;;;114.15;22.75;;;;;;;;;;5012315;28;20234;-66
2021/11/26 11:15:07;;;;;;;108.15;24.00;;;;;;;;;;5011936;28;20203;-66
2021/11/26 11:17:34;;;;;;;107.35;24.67;;;;;;;;;;5011788;28;20211;-66
2021/11/26 11:20:02;;;;;;;111.55;24.98;;;;;;;;;;5011936;28;20221;-66
2021/11/26 11:22:31;;;;;;;107.35;24.52;;;;;;;;;;5012255;28;20202;-66
2021/11/26 11:25:00;;;;;;;103.38;24.80;;;;;;;;;;5012151;28;20207;-65
2021/11/26 11:27:27;;;;;;;107.70;24.45;;;;;;;;;;5011718;28;20211;-66
2021/11/26 11:29:54;;;;;;;103.18;24.42;;;;;;;;;;5011879;28;20744;-66
2021/11/26 11:32:22;;;;;;;98.50;21.30;;;;;;;;;;5011803;28;20584;-66
2021/11/26 11:34:49;;;;;;;105.93;25.95;;;;;;;;;;5011956;28;20203;-66
2021/11/26 11:37:18;;;;;;;105.45;27.90;;;;;;;;;;5011532;28;20207;-66
2021/11/26 11:39:46;;;;;;;104.10;24.25;;;;;;;;;;5011860;28;20230;-66
2021/11/26 11:42:25;;;;;;;97.47;22.95;;;;;;;;;;5011857;28;20203;-66
2021/11/26 11:44:55;;;;;;;105.13;23.42;;;;;;;;;;5011613;28;20396;-66
2021/11/26 11:47:24;;;;;;;102.13;23.20;;;;;;;;;;5015139;28;20219;-66
2021/11/26 11:49:52;;;;;;;107.82;24.88;;;;;;;;;;5015532;28;20230;-66
2021/11/26 11:52:19;;;;;;;110.20;27.50;;;;;;;;;;5015575;28;20245;-65
2021/11/26 11:54:47;;;;;;;118.82;28.55;;;;;;;;;;5015532;28;20203;-66
2021/11/26 11:57:23;;;;;;;112.72;28.38;;;;;;;;;;5015256;28;20559;-66
2021/11/26 11:59:51;;;;;;;115.53;27.98;;;;;;;;;;5015562;28;20227;-67
2021/11/26 12:02:25;;;;;;;106.38;24.48;;;;;;;;;;5015691;28;20571;-67
2021/11/26 12:04:53;;;;;;;110.50;25.67;;;;;;;;;;5015486;28;20575;-66
2021/11/26 12:07:25;;;;;;;108.45;24.35;;;;;;;;;;5015081;28;20255;-66
2021/11/26 12:10:01;;;;;;;121.20;27.95;;;;;;;;;;5015120;28;20238;-67
2021/11/26 12:12:29;;;;;;;108.97;27.15;;;;;;;;;;5015658;28;20253;-67
2021/11/26 12:14:58;;;;;;;107.75;26.00;;;;;;;;;;5015119;28;20207;-66
2021/11/26 12:17:27;;;;;;;106.35;26.35;;;;;;;;;;5015061;28;20213;-67
2021/11/26 12:20:02;;;;;;;109.90;27.85;;;;;;;;;;5015100;28;20262;-67
2021/11/26 12:22:33;;;;;;;112.40;26.25;;;;;;;;;;5012743;28;20208;-67
2021/11/26 12:25:00;;;;;;;110.78;25.48;;;;;;;;;;5015199;28;20289;-66
2021/11/26 12:27:37;;;;;;;115.63;27.70;;;;;;;;;;5014626;28;20238;-67
2021/11/26 12:30:16;;;;;;;104.72;26.13;;;;;;;;;;5014682;28;20210;-66
2021/11/26 12:32:43;;;;;;;106.97;27.98;;;;;;;;;;4998170;28;20219;-66
2021/11/26 12:35:12;;;;;;;101.35;25.30;;;;;;;;;;5015007;28;20217;-65
2021/11/26 12:37:39;;;;;;;102.38;24.58;;;;;;;;;;5014413;28;20242;-66
2021/11/26 12:40:09;;;;;;;99.07;22.70;;;;;;;;;;5014970;28;20203;-66
2021/11/26 12:42:38;;;;;;;105.22;24.20;;;;;;;;;;4999522;28;20207;-66
2021/11/26 12:45:08;;;;;;;96.05;21.95;;;;;;;;;;4994961;28;20208;-66
2021/11/26 12:47:37;;;;;;;123.85;24.02;;;;;;;;;;4994855;28;20254;-67
2021/11/26 12:52:50;;;;;;;95.22;23.92;;;;;;;;;;4994883;28;20235;-66
2021/11/26 12:55:18;;;;;;;100.75;22.65;;;;;;;;;;4995226;28;20212;-66
2021/11/26 12:57:52;;;;;;;97.38;21.50;;;;;;;;;;4992873;28;20253;-67
2021/11/26 13:00:20;;;;;;;95.95;20.42;;;;;;;;;;4995065;28;20214;-65
2021/11/26 13:02:48;;;;;;;103.85;21.77;;;;;;;;;;4994734;28;20211;-66
2021/11/26 13:05:16;;;;;;;97.93;21.90;;;;;;;;;;4994740;28;20626;-67
2021/11/26 13:07:43;;;;;;;96.85;20.98;;;;;;;;;;4994187;28;20687;-67
2021/11/26 13:10:12;;;;;;;101.95;22.10;;;;;;;;;;4994362;28;20200;-67
2021/11/26 13:12:40;;;;;;;96.63;20.20;;;;;;;;;;4994338;28;20877;-67
2021/11/26 13:15:08;;;;;;;95.53;21.08;;;;;;;;;;5009481;28;20211;-65
2021/11/26 13:17:38;;;;;;;95.57;20.23;;;;;;;;;;5013840;28;20222;-66
2021/11/26 13:20:09;;;;;;;94.20;19.15;;;;;;;;;;5013882;28;20689;-66
2021/11/26 13:22:44;;;;;;;93.38;17.98;;;;;;;;;;5014495;28;20253;-67
2021/11/26 13:25:11;;;;;;;96.88;19.15;;;;;;;;;;5013958;28;20265;-67
2021/11/26 13:27:56;;;;;;;97.57;19.50;;;;;;;;;;5013597;28;20559;-66
2021/11/26 13:30:24;;;;;;;91.80;16.67;;;;;;;;;;5013858;28;20206;-67
2021/11/26 13:33:02;;;;;;;88.90;17.75;;;;;;;;;;5013610;28;20223;-67
2021/11/26 13:35:30;;;;;;;99.20;18.80;;;;;;;;;;5013471;28;20213;-67
2021/11/26 13:37:59;;;;;;;90.28;17.05;;;;;;;;;;5013387;28;20256;-66
2021/11/26 13:40:35;;;;;;;86.97;17.42;;;;;;;;;;5013430;28;20683;-67
2021/11/26 13:43:02;;;;;;;90.65;18.65;;;;;;;;;;5013516;28;20693;-66
2021/11/26 13:45:34;;;;;;;87.82;16.65;;;;;;;;;;5011656;28;20217;-66
2021/11/26 13:48:02;;;;;;;95.43;18.67;;;;;;;;;;5013431;28;20227;-66
2021/11/26 13:50:29;;;;;;;86.57;16.70;;;;;;;;;;5013454;28;20218;-67
2021/11/26 13:52:57;;;;;;;91.85;19.35;;;;;;;;;;5013461;28;20223;-66
2021/11/26 13:55:24;;;;;;;86.45;16.77;;;;;;;;;;5013020;28;20400;-67
2021/11/26 13:57:51;;;;;;;85.50;17.35;;;;;;;;;;5012878;28;20231;-67
2021/11/26 14:00:20;;;;;;;86.55;16.90;;;;;;;;;;5013546;28;20675;-67
2021/11/26 14:02:50;;;;;;;88.88;16.58;;;;;;;;;;5013171;28;20199;-66
2021/11/26 14:05:28;;;;;;;87.60;16.75;;;;;;;;;;5013437;28;20585;-66
2021/11/26 14:08:02;;;;;;;84.60;17.10;;;;;;;;;;5012610;28;20227;-66
2021/11/26 14:10:30;;;;;;;86.90;17.10;;;;;;;;;;5012827;28;20222;-66
2021/11/26 14:12:57;;;;;;;82.65;15.55;;;;;;;;;;5012656;28;20227;-64
2021/11/26 14:15:24;;;;;;;87.45;17.88;;;;;;;;;;5012972;28;20298;-66
2021/11/26 14:17:52;;;;;;;81.82;15.65;;;;;;;;;;5010306;28;20231;-65
2021/11/26 14:20:23;;;;;;;87.38;16.65;;;;;;;;;;5012813;28;20679;-66